CMB853 Details

Departure: Yokota AFB (RJTY)
Arrival: Guam International Airport (PGUM)
Route: XAC B586 UNZ
Notes: USTRANSCOM CONTRACT FLIGHT


Current Weather Information
RJTY 260856Z AUTO 04004KT 10SM CLR 13/01 A2976 RMK AO2 SLPNO T01290009 53003 FZRANO $
PGUM 260954Z 07011KT 10SM CLR 27/22 A2998 RMK AO2 SLP144 T02720222